Time;durP1;ratioP1;P1;durP2;ratioP2;P2;SDS_P1;SDS_P2;PMS_P1;PMS_P2;Temp;Humidity;BMP_temperature;BMP_pressure;BME280_temperature;BME280_humidity;BME280_pressure;Samples;Min_cycle;Max_cycle;Signal;HPM_P1;HPM_P2
2023/03/24 00:01:16;;;;;;;15.15;10.75;;;9.50;89.80;;;;;;5014358;28;20033;-80
2023/03/24 00:03:47;;;;;;;17.92;12.00;;;9.40;89.70;;;;;;5015554;28;20475;-81
2023/03/24 00:06:13;;;;;;;14.52;12.02;;;9.40;89.80;;;;;;5016019;28;20037;-82
2023/03/24 00:08:42;;;;;;;17.58;13.05;;;9.40;89.90;;;;;;5019691;28;20018;-81
2023/03/24 00:11:12;;;;;;;16.48;12.05;;;9.40;89.90;;;;;;5018542;28;20025;-81
2023/03/24 00:13:39;;;;;;;13.95;11.52;;;9.40;89.90;;;;;;5015347;28;20018;-80
2023/03/24 00:16:09;;;;;;;17.52;11.50;;;9.40;90.00;;;;;;5012226;28;20029;-82
2023/03/24 00:18:36;;;;;;;15.10;11.45;;;9.40;89.90;;;;;;5013196;28;20399;-82
2023/03/24 00:21:06;;;;;;;18.10;12.75;;;9.40;90.00;;;;;;5013717;28;20546;-82
2023/03/24 00:23:33;;;;;;;16.20;11.65;;;9.30;90.10;;;;;;5018674;28;20018;-82
2023/03/24 00:26:08;;;;;;;17.90;11.27;;;9.30;90.20;;;;;;5019660;28;20021;-81
2023/03/24 00:28:35;;;;;;;19.45;13.77;;;9.30;90.30;;;;;;5006972;28;20399;-83
2023/03/24 00:31:02;;;;;;;;;;;9.30;90.40;;;;;;5013932;28;20038;-82
2023/03/24 00:33:30;;;;;;;17.33;13.63;;;9.30;90.30;;;;;;5012455;28;19905;-82
2023/03/24 00:35:56;;;;;;;18.83;13.23;;;9.30;90.50;;;;;;5020474;28;20274;-84
2023/03/24 00:38:22;;;;;;;15.50;11.90;;;9.30;90.60;;;;;;5013650;28;20030;-82
2023/03/24 00:40:49;;;;;;;18.27;13.95;;;9.30;90.60;;;;;;5012623;28;20417;-82
2023/03/24 00:43:15;;;;;;;17.27;13.15;;;9.40;90.60;;;;;;5013437;28;20017;-82
2023/03/24 00:45:45;;;;;;;17.75;13.02;;;9.50;90.60;;;;;;5012022;28;20105;-82
2023/03/24 00:48:16;;;;;;;15.60;13.65;;;9.50;90.50;;;;;;5014018;28;20145;-81
2023/03/24 00:50:47;;;;;;;18.80;13.77;;;9.60;90.50;;;;;;5005536;28;20541;-81
2023/03/24 00:53:17;;;;;;;20.13;15.13;;;9.60;90.40;;;;;;5021126;28;20029;-82
2023/03/24 00:55:46;;;;;;;15.88;10.85;;;9.60;90.40;;;;;;5028241;28;20024;-81
2023/03/24 00:58:22;;;;;;;21.60;14.88;;;9.60;90.40;;;;;;5016371;28;20018;-81
2023/03/24 01:00:54;;;;;;;16.33;13.02;;;9.60;90.40;;;;;;5016680;28;20025;-81
2023/03/24 01:03:23;;;;;;;15.25;12.73;;;9.60;90.70;;;;;;5015841;28;20014;-81
2023/03/24 01:05:50;;;;;;;16.70;12.75;;;9.60;90.40;;;;;;5016958;28;20018;-82
2023/03/24 01:08:19;;;;;;;19.70;13.95;;;9.60;90.40;;;;;;5025365;28;20037;-82
2023/03/24 01:10:52;;;;;;;15.80;12.57;;;9.60;90.40;;;;;;5028496;28;20030;-81
2023/03/24 01:13:20;;;;;;;17.30;13.45;;;9.60;90.40;;;;;;5028537;28;20490;-82
2023/03/24 01:15:47;;;;;;;19.10;12.48;;;9.60;90.40;;;;;;5033170;28;20474;-81
2023/03/24 01:18:14;;;;;;;17.58;12.90;;;9.60;90.40;;;;;;5023078;28;20099;-81
2023/03/24 01:20:44;;;;;;;15.05;12.00;;;9.70;90.30;;;;;;5016241;28;20478;-81
2023/03/24 01:23:14;;;;;;;16.45;12.70;;;9.70;90.10;;;;;;5019783;28;20093;-80
2023/03/24 01:25:46;;;;;;;20.92;12.82;;;9.70;90.00;;;;;;5016481;28;20041;-81
2023/03/24 01:28:14;;;;;;;17.75;13.43;;;9.70;89.80;;;;;;5012327;28;20041;-81
2023/03/24 01:30:40;;;;;;;14.70;12.57;;;9.70;89.70;;;;;;5016249;28;20049;-79
2023/03/24 01:33:07;;;;;;;16.75;13.15;;;9.70;89.70;;;;;;5016740;28;20042;-81
2023/03/24 01:35:33;;;;;;;17.70;12.97;;;9.70;89.60;;;;;;5017408;28;20018;-80
2023/03/24 01:37:59;;;;;;;16.67;13.23;;;9.70;89.50;;;;;;5029687;28;20042;-80
2023/03/24 01:40:29;;;;;;;14.88;11.88;;;9.70;89.50;;;;;;5020198;28;20034;-81
2023/03/24 01:42:55;;;;;;;15.48;12.10;;;9.70;89.60;;;;;;5015797;28;20368;-82
2023/03/24 01:45:40;;;;;;;14.02;12.30;;;9.70;89.60;;;;;;5016151;28;20018;-82
2023/03/24 01:48:13;;;;;;;16.90;12.77;;;9.70;89.70;;;;;;5016483;28;20025;-81
2023/03/24 01:50:40;;;;;;;17.05;14.98;;;9.70;89.80;;;;;;5016631;28;20470;-81
2023/03/24 01:53:06;;;;;;;;;;;9.70;89.90;;;;;;5016630;28;20026;-81
2023/03/24 01:55:32;;;;;;;15.23;12.57;;;9.60;89.50;;;;;;5016068;28;19912;-82
2023/03/24 01:58:01;;;;;;;18.08;13.70;;;9.60;90.00;;;;;;5014093;28;20034;-82
2023/03/24 02:00:27;;;;;;;18.70;14.20;;;9.60;90.20;;;;;;5015702;28;20034;-83
2023/03/24 02:03:05;;;;;;;16.92;13.57;;;9.50;90.30;;;;;;5016970;28;20395;-81
2023/03/24 02:05:34;;;;;;;16.45;14.30;;;9.50;90.50;;;;;;5015992;28;20033;-83
2023/03/24 02:08:06;;;;;;;18.55;12.50;;;9.40;90.60;;;;;;5017396;28;20079;-81
2023/03/24 02:10:34;;;;;;;15.57;13.35;;;9.40;90.70;;;;;;5017636;28;20081;-82
2023/03/24 02:13:00;;;;;;;20.00;15.40;;;9.30;91.00;;;;;;5016435;28;20037;-82
2023/03/24 02:15:29;;;;;;;16.58;11.65;;;9.30;90.90;;;;;;5017227;28;20574;-81
2023/03/24 02:18:19;;;;;;;21.65;13.52;;;9.30;91.00;;;;;;5015872;28;20384;-82
2023/03/24 02:21:28;;;;;;;17.85;13.52;;;9.30;91.00;;;;;;5015200;28;20026;-82
2023/03/24 02:24:23;;;;;;;19.10;14.32;;;9.30;91.00;;;;;;5002616;28;20410;-80
2023/03/24 02:26:58;;;;;;;16.40;13.10;;;9.30;91.10;;;;;;4989325;28;20092;-82
2023/03/24 02:29:58;;;;;;;18.88;13.07;;;9.40;91.10;;;;;;5017661;28;20018;-79
2023/03/24 02:32:52;;;;;;;17.85;14.07;;;9.50;91.10;;;;;;5006803;28;20030;-81
2023/03/24 02:35:46;;;;;;;19.52;14.90;;;9.50;91.00;;;;;;5016079;28;20475;-81
2023/03/24 02:38:54;;;;;;;19.67;14.48;;;9.60;91.00;;;;;;5014122;28;20068;-82
2023/03/24 02:41:54;;;;;;;18.08;13.07;;;9.60;91.00;;;;;;5015685;28;20491;-81
2023/03/24 02:44:29;;;;;;;16.70;13.98;;;9.60;91.00;;;;;;5007043;28;20509;-80
2023/03/24 02:47:00;;;;;;;16.48;12.73;;;9.70;91.00;;;;;;5014714;28;20536;-81
2023/03/24 02:49:56;;;;;;;19.63;13.10;;;9.60;90.90;;;;;;5021770;28;20041;-81
2023/03/24 02:52:21;;;;;;;22.13;15.60;;;9.70;91.00;;;;;;5009729;28;20399;-82
2023/03/24 02:55:01;;;;;;;18.65;14.32;;;9.60;91.00;;;;;;5015109;28;20022;-82
2023/03/24 02:57:36;;;;;;;20.33;15.50;;;9.70;91.20;;;;;;5002823;28;20510;-81
2023/03/24 03:00:17;;;;;;;16.77;13.70;;;9.70;91.20;;;;;;5014633;28;20029;-82
2023/03/24 03:02:56;;;;;;;16.80;12.82;;;9.70;91.20;;;;;;5006101;28;20025;-81
2023/03/24 03:05:30;;;;;;;19.20;14.80;;;9.70;91.10;;;;;;4998837;28;20079;-82
2023/03/24 03:07:59;;;;;;;16.98;13.07;;;9.70;91.10;;;;;;5009199;28;20029;-81
2023/03/24 03:10:41;;;;;;;19.38;13.52;;;9.70;91.10;;;;;;5008717;28;20040;-80
2023/03/24 03:13:29;;;;;;;18.20;12.80;;;9.70;91.10;;;;;;5016479;28;20022;-81
2023/03/24 03:16:03;;;;;;;18.63;14.45;;;9.70;91.00;;;;;;5016299;28;20494;-80
2023/03/24 03:18:38;;;;;;;18.08;13.15;;;9.70;91.00;;;;;;5018427;28;20026;-81
2023/03/24 03:21:10;;;;;;;22.13;14.25;;;9.70;90.90;;;;;;5016359;28;20041;-81
2023/03/24 03:23:44;;;;;;;18.80;14.15;;;9.80;90.80;;;;;;5015360;28;20084;-84
2023/03/24 03:26:15;;;;;;;18.83;14.30;;;9.80;90.80;;;;;;5016064;28;20022;-81
2023/03/24 03:28:48;;;;;;;18.30;14.98;;;9.80;90.70;;;;;;5013939;28;20113;-82
2023/03/24 03:31:20;;;;;;;17.60;14.18;;;9.80;90.70;;;;;;5014535;28;20042;-82
2023/03/24 03:33:58;;;;;;;20.55;15.00;;;9.80;90.70;;;;;;5017384;28;20491;-82
2023/03/24 03:36:29;;;;;;;17.80;12.98;;;9.90;90.70;;;;;;5016161;28;20085;-82
2023/03/24 03:39:14;;;;;;;19.88;13.63;;;9.90;90.70;;;;;;5012761;28;20588;-82
2023/03/24 03:41:41;;;;;;;17.75;14.35;;;9.90;90.70;;;;;;5012287;28;20452;-81
2023/03/24 03:44:07;;;;;;;21.20;14.30;;;9.90;90.70;;;;;;5013438;28;20104;-81
2023/03/24 03:46:35;;;;;;;20.77;15.98;;;9.80;90.70;;;;;;5013698;28;20077;-82
2023/03/24 03:49:02;;;;;;;22.58;16.52;;;9.90;90.80;;;;;;5013810;28;20029;-82
2023/03/24 03:51:28;;;;;;;18.25;15.25;;;9.80;91.00;;;;;;5014918;28;20159;-83
2023/03/24 03:54:00;;;;;;;18.90;15.57;;;9.60;91.50;;;;;;5019771;28;20032;-82
2023/03/24 03:56:32;;;;;;;22.15;16.70;;;9.40;92.30;;;;;;5037225;28;20025;-81
2023/03/24 03:58:58;;;;;;;19.92;16.92;;;9.20;93.20;;;;;;5017977;28;20470;-82
2023/03/24 04:01:28;;;;;;;22.90;18.15;;;9.10;93.60;;;;;;5014501;28;20030;-82
2023/03/24 04:04:20;;;;;;;22.45;17.15;;;8.90;94.10;;;;;;5015079;28;20018;-82
2023/03/24 04:06:56;;;;;;;24.98;19.52;;;8.80;94.60;;;;;;5026126;28;20038;-82
2023/03/24 04:09:36;;;;;;;20.23;14.23;;;8.80;95.00;;;;;;5009494;28;20022;-81
2023/03/24 04:12:47;;;;;;;27.33;19.38;;;8.60;95.40;;;;;;5013299;28;20033;-83
2023/03/24 04:15:42;;;;;;;23.00;17.83;;;8.50;95.80;;;;;;5014308;28;20032;-81
2023/03/24 04:18:26;;;;;;;24.30;18.58;;;8.50;96.40;;;;;;5011129;28;20036;-80
2023/03/24 04:21:12;;;;;;;24.40;17.25;;;8.40;96.70;;;;;;5011267;28;20060;-82
2023/03/24 04:23:56;;;;;;;25.17;19.25;;;8.40;97.00;;;;;;5013596;28;20096;-83
2023/03/24 04:26:40;;;;;;;24.33;16.95;;;8.30;97.50;;;;;;5004408;28;20025;-82
2023/03/24 04:29:32;;;;;;;23.45;19.08;;;8.30;97.80;;;;;;5013472;28;20022;-82
2023/03/24 04:32:13;;;;;;;27.80;20.10;;;8.20;98.20;;;;;;5013052;28;20140;-83
2023/03/24 04:34:45;;;;;;;28.75;21.42;;;8.20;98.40;;;;;;5012726;28;20141;-82
2023/03/24 04:37:15;;;;;;;25.17;18.85;;;8.20;98.70;;;;;;5013613;28;20018;-82
2023/03/24 04:39:45;;;;;;;25.55;20.27;;;8.10;99.20;;;;;;5013354;28;20050;-80
2023/03/24 04:42:22;;;;;;;25.58;20.02;;;8.10;99.70;;;;;;5001274;28;20022;-82
2023/03/24 04:44:51;;;;;;;26.05;18.92;;;8.10;99.90;;;;;;5017896;28;20391;-83
2023/03/24 04:47:21;;;;;;;34.60;21.95;;;8.10;99.90;;;;;;5022737;28;20014;-82
2023/03/24 04:49:47;;;;;;;26.02;19.05;;;8.10;99.90;;;;;;5026070;28;20082;-81
2023/03/24 04:52:13;;;;;;;28.60;21.67;;;8.10;99.90;;;;;;5024029;28;20026;-81
2023/03/24 04:54:39;;;;;;;29.20;22.48;;;8.10;99.90;;;;;;5025747;28;20077;-80
2023/03/24 04:57:05;;;;;;;28.52;21.63;;;8.10;99.90;;;;;;5026106;28;20030;-82
2023/03/24 04:59:34;;;;;;;25.67;18.60;;;8.10;99.90;;;;;;5020497;28;20033;-83
2023/03/24 05:02:01;;;;;;;29.40;20.95;;;8.10;99.90;;;;;;5020141;28;20026;-82
2023/03/24 05:04:28;;;;;;;30.95;23.13;;;8.00;99.90;;;;;;5018961;28;20025;-83
2023/03/24 05:06:54;;;;;;;;;;;8.00;99.90;;;;;;5018285;28;20021;-84
2023/03/24 05:09:22;;;;;;;29.20;22.42;;;7.90;99.90;;;;;;5010703;28;20389;-82
2023/03/24 05:11:50;;;;;;;30.48;24.00;;;8.00;99.90;;;;;;5020685;28;20057;-82
2023/03/24 05:14:17;;;;;;;34.13;23.38;;;7.90;99.90;;;;;;5020067;28;20050;-83
2023/03/24 05:16:42;;;;;;;31.13;23.55;;;7.90;99.90;;;;;;5027165;28;20057;-83
2023/03/24 05:19:08;;;;;;;32.33;22.95;;;7.90;99.90;;;;;;5036248;28;20030;-83
2023/03/24 05:21:35;;;;;;;32.63;23.65;;;8.00;99.90;;;;;;5025536;28;20440;-82
2023/03/24 05:24:01;;;;;;;35.33;25.10;;;8.00;99.90;;;;;;5019713;28;20092;-83
2023/03/24 05:26:27;;;;;;;31.90;24.92;;;8.00;99.90;;;;;;5021668;28;20022;-84
2023/03/24 05:28:53;;;;;;;34.53;25.95;;;8.00;99.90;;;;;;5023192;28;20026;-83
2023/03/24 05:31:19;;;;;;;34.78;25.90;;;8.00;99.90;;;;;;5014457;28;20030;-80
2023/03/24 05:33:45;;;;;;;35.65;25.65;;;8.00;99.90;;;;;;5025649;28;20026;-82
2023/03/24 05:36:11;;;;;;;34.92;27.67;;;8.00;99.90;;;;;;5015307;28;20387;-83
2023/03/24 05:38:37;;;;;;;39.22;27.15;;;8.00;99.90;;;;;;5017929;28;20041;-82
2023/03/24 05:41:04;;;;;;;40.35;27.48;;;8.10;99.90;;;;;;5017154;28;20026;-83
2023/03/24 05:43:30;;;;;;;35.80;25.73;;;8.10;99.90;;;;;;5009998;28;20450;-81
2023/03/24 05:45:58;;;;;;;32.75;26.88;;;8.10;99.90;;;;;;5016745;28;20060;-83
2023/03/24 05:48:25;;;;;;;35.00;26.77;;;8.10;99.90;;;;;;5015711;28;20026;-82
2023/03/24 05:50:51;;;;;;;38.10;26.13;;;8.10;99.90;;;;;;5015416;28;20495;-82
2023/03/24 05:53:17;;;;;;;31.10;23.00;;;8.10;99.90;;;;;;5015619;28;20037;-82
2023/03/24 05:55:45;;;;;;;33.47;25.33;;;8.20;99.90;;;;;;5011081;28;20022;-82
2023/03/24 05:58:11;;;;;;;31.52;24.92;;;8.20;99.90;;;;;;5024302;28;20567;-84
2023/03/24 06:00:37;;;;;;;33.53;26.02;;;8.20;99.90;;;;;;5015806;28;20057;-81
2023/03/24 06:03:03;;;;;;;31.67;24.15;;;8.20;99.90;;;;;;5016403;28;20072;-83
2023/03/24 06:05:30;;;;;;;34.13;27.00;;;8.30;99.90;;;;;;5014800;28;20368;-83
2023/03/24 06:08:00;;;;;;;34.78;25.77;;;8.30;99.90;;;;;;5018535;28;20538;-82
2023/03/24 06:10:26;;;;;;;32.15;25.73;;;8.30;99.90;;;;;;5015858;28;20029;-82
2023/03/24 06:12:54;;;;;;;37.15;25.73;;;8.20;99.90;;;;;;5017247;28;20359;-83
2023/03/24 06:15:21;;;;;;;36.65;26.60;;;8.20;99.90;;;;;;5021558;28;20064;-83
2023/03/24 06:17:49;;;;;;;32.75;23.95;;;8.20;99.90;;;;;;5016730;28;20037;-81
2023/03/24 06:20:17;;;;;;;;;;;8.20;99.90;;;;;;5017458;28;20033;-81
2023/03/24 06:22:46;;;;;;;31.55;23.95;;;8.10;99.90;;;;;;5017274;28;19905;-82
2023/03/24 06:25:14;;;;;;;40.65;28.20;;;8.20;99.90;;;;;;5016811;28;20030;-83
2023/03/24 06:27:47;;;;;;;34.55;25.40;;;8.20;99.90;;;;;;5017717;28;20125;-82
2023/03/24 06:30:17;;;;;;;36.10;25.35;;;8.20;99.90;;;;;;5019117;28;20446;-82
2023/03/24 06:32:46;;;;;;;35.55;26.08;;;8.30;99.90;;;;;;5027681;28;20030;-80
2023/03/24 06:35:13;;;;;;;37.67;24.48;;;8.20;99.90;;;;;;5029444;28;20052;-81
2023/03/24 06:37:40;;;;;;;31.55;23.55;;;8.20;99.90;;;;;;5021806;28;20041;-84
2023/03/24 06:40:09;;;;;;;29.85;22.90;;;8.20;99.90;;;;;;5014642;28;20407;-82
2023/03/24 06:42:35;;;;;;;29.08;22.48;;;8.20;99.90;;;;;;5016931;28;20018;-84
2023/03/24 06:45:01;;;;;;;25.95;21.63;;;8.20;99.90;;;;;;5016834;28;20033;-83
2023/03/24 06:47:26;;;;;;;30.30;21.90;;;8.20;99.90;;;;;;5017170;28;20026;-81
2023/03/24 06:49:52;;;;;;;28.45;22.10;;;8.30;99.90;;;;;;5020703;28;20054;-82
2023/03/24 06:52:19;;;;;;;27.85;20.77;;;8.30;99.90;;;;;;5016723;28;20386;-82
2023/03/24 06:54:44;;;;;;;30.90;22.50;;;8.40;99.90;;;;;;5017492;28;20038;-80
2023/03/24 06:57:10;;;;;;;31.08;21.80;;;8.30;99.90;;;;;;5023793;28;20022;-82
2023/03/24 06:59:36;;;;;;;24.77;20.50;;;8.40;99.90;;;;;;5021038;28;20052;-80
2023/03/24 07:02:02;;;;;;;30.55;21.80;;;8.40;99.90;;;;;;5016551;28;20120;-82
2023/03/24 07:04:35;;;;;;;28.23;21.17;;;8.50;99.90;;;;;;5017730;28;20174;-82
2023/03/24 07:07:01;;;;;;;27.15;20.25;;;8.50;99.90;;;;;;5016571;28;20018;-83
2023/03/24 07:09:28;;;;;;;26.20;19.57;;;8.50;99.90;;;;;;5017697;28;20100;-82
2023/03/24 07:11:54;;;;;;;24.73;19.20;;;8.50;99.90;;;;;;5017257;28;20125;-84
2023/03/24 07:14:20;;;;;;;28.08;19.17;;;8.40;99.90;;;;;;5015226;28;20444;-83
2023/03/24 07:16:46;;;;;;;24.17;19.15;;;8.50;99.90;;;;;;5016487;28;20124;-82
2023/03/24 07:19:12;;;;;;;23.90;19.98;;;8.40;99.90;;;;;;5015675;28;20080;-82
2023/03/24 07:21:38;;;;;;;26.88;20.45;;;8.40;99.90;;;;;;5015894;28;20029;-82
2023/03/24 07:24:04;;;;;;;24.67;20.45;;;8.30;99.90;;;;;;5014381;28;20022;-82
2023/03/24 07:26:30;;;;;;;29.38;21.75;;;8.30;99.90;;;;;;5015948;28;20030;-79
2023/03/24 07:28:56;;;;;;;28.73;21.92;;;8.40;99.90;;;;;;5017362;28;20083;-82
2023/03/24 07:31:23;;;;;;;23.77;18.60;;;8.40;99.90;;;;;;5015816;28;20597;-83
2023/03/24 07:33:49;;;;;;;35.10;21.98;;;8.40;99.90;;;;;;5015784;28;20022;-81
2023/03/24 07:36:15;;;;;;;22.88;17.63;;;8.40;99.90;;;;;;5016516;28;20115;-82
2023/03/24 07:38:41;;;;;;;24.90;18.88;;;8.40;99.90;;;;;;5017653;28;20026;-84
2023/03/24 07:41:07;;;;;;;23.48;18.77;;;8.40;99.90;;;;;;5014589;28;20036;-80
2023/03/24 07:43:34;;;;;;;21.52;16.80;;;8.40;99.90;;;;;;5017647;28;20498;-81
2023/03/24 07:46:00;;;;;;;21.88;17.52;;;8.40;99.90;;;;;;5026017;28;20033;-84
2023/03/24 07:48:26;;;;;;;25.88;17.67;;;8.40;99.90;;;;;;5019006;28;20026;-82
2023/03/24 07:50:52;;;;;;;26.50;19.52;;;8.40;99.90;;;;;;5024212;28;20080;-87
2023/03/24 07:53:18;;;;;;;26.27;19.00;;;8.50;99.90;;;;;;5017423;28;20026;-86
2023/03/24 07:55:45;;;;;;;22.73;17.10;;;8.50;99.90;;;;;;5025694;28;20036;-83
2023/03/24 07:58:11;;;;;;;23.77;17.30;;;8.50;99.90;;;;;;5025070;28;20425;-86
2023/03/24 08:00:37;;;;;;;22.38;17.33;;;8.60;99.90;;;;;;5024290;28;20069;-85
2023/03/24 08:03:03;;;;;;;22.30;16.38;;;8.60;99.90;;;;;;5026334;28;20017;-87
2023/03/24 08:05:30;;;;;;;19.88;15.50;;;8.60;99.90;;;;;;5017912;28;20364;-82
2023/03/24 08:07:56;;;;;;;24.45;16.77;;;8.60;99.90;;;;;;5017373;28;20021;-87
2023/03/24 08:10:28;;;;;;;18.80;15.17;;;8.60;99.90;;;;;;5015511;28;20034;-83
2023/03/24 08:12:55;;;;;;;23.58;15.02;;;8.70;99.90;;;;;;5017902;28;20275;-85
2023/03/24 08:15:21;;;;;;;18.15;14.38;;;8.70;99.90;;;;;;5013645;28;20121;-84
2023/03/24 08:17:48;;;;;;;17.83;13.75;;;8.70;99.90;;;;;;5015444;28;20083;-84
2023/03/24 08:20:14;;;;;;;20.92;14.50;;;8.70;99.90;;;;;;5015873;28;20079;-84
2023/03/24 08:22:42;;;;;;;15.05;11.40;;;8.70;99.90;;;;;;5013927;28;20037;-82
2023/03/24 08:25:09;;;;;;;16.98;13.13;;;8.70;99.90;;;;;;5014640;28;20033;-86
2023/03/24 08:27:36;;;;;;;16.33;13.40;;;8.50;99.90;;;;;;5013481;28;20030;-84
2023/03/24 08:30:07;;;;;;;18.95;14.10;;;8.60;99.90;;;;;;5014736;28;20018;-85
2023/03/24 08:32:34;;;;;;;15.45;11.73;;;8.60;99.90;;;;;;5015732;28;20528;-85
2023/03/24 08:35:01;;;;;;;14.67;11.07;;;8.60;99.90;;;;;;5014919;28;20093;-84
2023/03/24 08:37:27;;;;;;;17.45;12.15;;;8.70;99.90;;;;;;5016747;28;20032;-83
2023/03/24 08:39:57;;;;;;;16.13;12.65;;;8.70;99.90;;;;;;5016721;28;20050;-84
2023/03/24 08:42:26;;;;;;;13.85;11.88;;;8.80;99.90;;;;;;5015950;28;20026;-84
2023/03/24 08:44:52;;;;;;;19.73;13.82;;;8.90;99.90;;;;;;5015049;28;20087;-86
2023/03/24 08:47:18;;;;;;;15.25;12.00;;;9.00;99.90;;;;;;5015894;28;20032;-87
2023/03/24 08:49:44;;;;;;;16.38;12.57;;;9.20;99.90;;;;;;5026634;28;20379;-83
2023/03/24 08:52:10;;;;;;;18.45;11.15;;;9.20;99.90;;;;;;5019724;28;20033;-85
2023/03/24 08:54:36;;;;;;;14.32;10.70;;;9.10;99.90;;;;;;5023371;28;20084;-87
2023/03/24 08:57:02;;;;;;;12.95;11.18;;;9.20;99.90;;;;;;5016326;28;20554;-86
2023/03/24 08:59:28;;;;;;;12.43;9.27;;;9.20;99.90;;;;;;5028301;28;20033;-83
2023/03/24 09:01:54;;;;;;;14.50;10.77;;;9.20;99.90;;;;;;5023087;28;20391;-87
2023/03/24 09:04:20;;;;;;;11.70;10.40;;;9.10;99.90;;;;;;5018631;28;20049;-86
2023/03/24 09:06:46;;;;;;;13.88;9.90;;;9.10;99.90;;;;;;5021779;28;20038;-84
2023/03/24 09:09:12;;;;;;;12.02;10.23;;;9.20;99.90;;;;;;5020469;28;20026;-87
2023/03/24 09:11:38;;;;;;;10.23;8.77;;;9.20;99.90;;;;;;5022958;28;20037;-84
2023/03/24 09:14:04;;;;;;;11.10;8.45;;;9.20;99.90;;;;;;5035890;28;20048;-84
2023/03/24 09:16:33;;;;;;;11.40;8.85;;;9.00;99.90;;;;;;5029310;28;20037;-89
2023/03/24 09:18:59;;;;;;;12.55;9.40;;;8.90;99.90;;;;;;5035793;28;20056;-87
2023/03/24 09:21:25;;;;;;;10.88;8.88;;;9.00;99.90;;;;;;5020829;28;20030;-88
2023/03/24 09:23:51;;;;;;;12.20;10.57;;;9.00;99.90;;;;;;5017512;28;20022;-82
2023/03/24 09:26:17;;;;;;;11.30;9.10;;;8.90;99.90;;;;;;5021135;28;20029;-88
2023/03/24 09:28:43;;;;;;;12.15;9.23;;;8.80;99.90;;;;;;5018287;28;20022;-86
2023/03/24 09:31:10;;;;;;;13.35;9.43;;;8.90;99.90;;;;;;5017565;28;20026;-84
2023/03/24 09:33:37;;;;;;;12.32;9.55;;;8.80;99.90;;;;;;5015886;28;20028;-84
2023/03/24 09:36:03;;;;;;;10.68;9.07;;;8.90;99.90;;;;;;5018271;28;20054;-85
2023/03/24 09:38:30;;;;;;;10.77;8.47;;;9.00;99.90;;;;;;5020947;28;20022;-85
2023/03/24 09:41:01;;;;;;;8.98;7.13;;;9.10;99.90;;;;;;5024065;28;20291;-83
2023/03/24 09:43:42;;;;;;;10.00;8.35;;;9.00;99.90;;;;;;5028708;28;20070;-83
2023/03/24 09:46:44;;;;;;;9.00;6.88;;;9.00;99.90;;;;;;5020162;28;20069;-84
2023/03/24 09:49:21;;;;;;;12.07;7.65;;;9.10;99.90;;;;;;5042273;28;20026;-85
2023/03/24 09:51:48;;;;;;;9.77;7.55;;;9.00;99.90;;;;;;5028907;28;20089;-82
2023/03/24 09:54:30;;;;;;;9.20;7.00;;;9.00;99.90;;;;;;5028691;28;20085;-82
2023/03/24 09:56:57;;;;;;;9.05;7.25;;;9.00;99.90;;;;;;5025534;28;20037;-83
2023/03/24 09:59:38;;;;;;;10.93;7.70;;;8.90;99.90;;;;;;5009950;28;20026;-82
2023/03/24 10:02:22;;;;;;;11.45;8.18;;;8.90;99.90;;;;;;5021224;28;20061;-83
2023/03/24 10:04:49;;;;;;;8.90;7.18;;;8.90;99.90;;;;;;5023698;28;20022;-83
2023/03/24 10:07:28;;;;;;;11.60;7.55;;;8.90;99.90;;;;;;5019667;28;20116;-85
2023/03/24 10:10:00;;;;;;;9.00;6.35;;;8.90;99.90;;;;;;5017812;28;20064;-82
2023/03/24 10:12:47;;;;;;;9.82;7.85;;;8.80;99.90;;;;;;5019723;28;20029;-82
2023/03/24 10:15:31;;;;;;;9.27;7.10;;;8.80;99.90;;;;;;5027344;28;20097;-82
2023/03/24 10:18:19;;;;;;;12.25;8.43;;;8.80;99.90;;;;;;5017367;28;20383;-84
2023/03/24 10:21:21;;;;;;;11.32;9.15;;;8.80;99.90;;;;;;5023049;28;20018;-85
2023/03/24 10:24:17;;;;;;;12.38;8.88;;;8.70;99.90;;;;;;5008145;28;20045;-84
2023/03/24 10:27:10;;;;;;;11.00;8.32;;;8.70;99.90;;;;;;5007222;28;20022;-83
2023/03/24 10:29:37;;;;;;;12.30;8.23;;;8.70;99.90;;;;;;5017675;28;20157;-83
2023/03/24 10:32:13;;;;;;;10.27;8.25;;;8.90;99.90;;;;;;5011685;28;20543;-83
2023/03/24 10:34:43;;;;;;;16.27;10.35;;;8.90;99.90;;;;;;5010370;28;20041;-85
2023/03/24 10:37:12;;;;;;;8.05;7.22;;;9.10;99.90;;;;;;5019454;28;20026;-85
2023/03/24 10:39:39;;;;;;;11.15;6.93;;;9.10;99.90;;;;;;5019192;28;20399;-85
2023/03/24 10:42:05;;;;;;;10.13;8.52;;;9.10;99.90;;;;;;5018027;28;20018;-85
2023/03/24 10:44:32;;;;;;;11.60;7.28;;;9.30;99.90;;;;;;5017062;28;20017;-86
2023/03/24 10:47:02;;;;;;;9.93;6.43;;;9.40;99.90;;;;;;5016907;28;20367;-87
2023/03/24 10:49:30;;;;;;;9.93;8.02;;;9.40;99.90;;;;;;5013838;28;20026;-84
2023/03/24 10:52:02;;;;;;;10.65;8.50;;;9.50;99.90;;;;;;5014961;28;20036;-85
2023/03/24 10:54:30;;;;;;;9.00;6.20;;;9.60;99.90;;;;;;5017614;28;20014;-83
2023/03/24 10:57:02;;;;;;;12.02;8.25;;;9.70;99.90;;;;;;5017538;28;20772;-81
2023/03/24 10:59:53;;;;;;;8.25;6.93;;;9.90;99.90;;;;;;5024056;28;20100;-84
2023/03/24 11:02:30;;;;;;;7.85;6.78;;;9.90;99.90;;;;;;5021591;28;20052;-86
2023/03/24 11:05:21;;;;;;;9.48;7.35;;;9.80;99.90;;;;;;5028247;28;20021;-87
2023/03/24 11:07:50;;;;;;;7.72;5.82;;;9.80;99.90;;;;;;5016295;28;20414;-83
2023/03/24 11:10:23;;;;;;;6.93;4.72;;;9.80;99.90;;;;;;5017871;28;20092;-87
2023/03/24 11:12:56;;;;;;;7.10;5.90;;;9.80;99.90;;;;;;5017308;28;20022;-88
2023/03/24 11:15:30;;;;;;;7.93;5.78;;;9.70;99.90;;;;;;5013941;28;20022;-89
2023/03/24 11:18:17;;;;;;;8.63;5.63;;;9.80;99.90;;;;;;5021516;28;20022;-92
2023/03/24 11:20:52;;;;;;;8.23;5.90;;;9.90;99.90;;;;;;5026636;28;20053;-94
2023/03/24 11:23:44;;;;;;;6.00;5.40;;;10.50;99.90;;;;;;5027106;28;20026;-92
2023/03/24 11:26:41;;;;;;;6.47;5.78;;;10.90;99.90;;;;;;5051169;28;20041;-91
2023/03/24 11:29:38;;;;;;;8.65;6.45;;;11.20;99.90;;;;;;5025744;28;20034;-90
2023/03/24 11:32:35;;;;;;;10.15;5.78;;;11.40;99.90;;;;;;4970004;29;20218;-91
2023/03/24 11:35:04;;;;;;;;;;;11.30;99.90;;;;;;4976128;29;20024;-91
2023/03/24 11:37:34;;;;;;;7.10;5.25;;;11.30;99.90;;;;;;4966075;28;19910;-89
2023/03/24 11:40:14;;;;;;;5.85;5.25;;;11.40;99.90;;;;;;4914905;29;20056;-91
2023/03/24 11:42:46;;;;;;;8.02;5.75;;;11.40;99.90;;;;;;4940566;29;20079;-90
2023/03/24 11:45:43;;;;;;;7.93;6.97;;;11.30;99.90;;;;;;4954640;29;20555;-91
2023/03/24 11:48:39;;;;;;;7.30;6.07;;;11.30;99.90;;;;;;4954066;29;20055;-87
2023/03/24 11:51:07;;;;;;;9.73;6.17;;;11.30;99.90;;;;;;4962280;28;20035;-88
2023/03/24 11:53:45;;;;;;;8.60;6.10;;;11.30;99.90;;;;;;4978636;28;20055;-89
2023/03/24 11:56:16;;;;;;;;;;;11.20;99.90;;;;;;4941578;29;20028;-90
2023/03/24 11:58:50;;;;;;;7.78;5.55;;;11.20;99.90;;;;;;4947192;29;19934;-89
2023/03/24 12:01:37;;;;;;;12.95;7.03;;;11.40;99.90;;;;;;4936833;29;20027;-92
2023/03/24 12:04:21;;;;;;;6.25;5.05;;;11.40;99.90;;;;;;4950162;29;20031;-92
2023/03/24 12:07:08;;;;;;;6.90;5.50;;;11.30;99.60;;;;;;4950115;28;20027;-91
2023/03/24 12:09:52;;;;;;;;;;;11.00;99.70;;;;;;5002933;28;20044;-88
2023/03/24 12:12:36;;;;;;;7.72;4.88;;;11.00;99.90;;;;;;5002630;28;19964;-90
2023/03/24 12:15:11;;;;;;;7.95;5.68;;;10.80;99.90;;;;;;4992426;28;20037;-88
2023/03/24 12:17:45;;;;;;;8.38;5.57;;;10.80;99.90;;;;;;4993225;28;20038;-88
2023/03/24 12:20:31;;;;;;;6.88;4.85;;;10.60;99.90;;;;;;4996997;28;20014;-89
2023/03/24 12:23:34;;;;;;;7.17;4.83;;;10.70;99.90;;;;;;4983316;28;20023;-92
2023/03/24 12:26:02;;;;;;;9.25;5.90;;;10.70;99.90;;;;;;4991852;28;20038;-90
2023/03/24 12:28:31;;;;;;;6.85;4.30;;;10.60;99.90;;;;;;5002705;28;20029;-89
2023/03/24 12:31:35;;;;;;;6.25;4.75;;;10.70;99.90;;;;;;5014215;28;20050;-93
2023/03/24 12:34:46;;;;;;;7.70;5.78;;;10.80;99.90;;;;;;4991632;28;20038;-92
2023/03/24 12:37:25;;;;;;;5.57;4.10;;;11.10;99.90;;;;;;5006352;28;20030;-89
2023/03/24 12:40:19;;;;;;;7.30;5.78;;;11.30;99.30;;;;;;5034305;28;20050;-88
2023/03/24 12:42:54;;;;;;;7.13;5.53;;;11.30;99.00;;;;;;4993890;28;20027;-89
2023/03/24 12:45:43;;;;;;;7.30;5.00;;;11.30;98.70;;;;;;4990693;28;20465;-86
2023/03/24 12:48:23;;;;;;;5.55;4.28;;;11.20;98.50;;;;;;4990011;28;20030;-91
2023/03/24 12:51:15;;;;;;;5.70;4.97;;;10.90;98.60;;;;;;4980205;28;20066;-90
2023/03/24 12:54:05;;;;;;;7.22;5.07;;;10.90;98.80;;;;;;4960792;28;20080;-89
2023/03/24 12:56:45;;;;;;;7.70;5.50;;;11.00;98.80;;;;;;4977203;28;20530;-90
2023/03/24 12:59:25;;;;;;;8.27;5.25;;;10.90;98.50;;;;;;4980309;28;20098;-90
2023/03/24 13:02:19;;;;;;;6.93;5.25;;;10.90;98.80;;;;;;4965745;28;20055;-91
2023/03/24 13:04:47;;;;;;;6.20;4.18;;;11.00;98.70;;;;;;4964973;28;20023;-90
2023/03/24 13:07:18;;;;;;;5.18;4.18;;;10.80;98.20;;;;;;4964797;28;20516;-93
2023/03/24 13:09:59;;;;;;;6.95;4.72;;;10.70;98.40;;;;;;4980477;28;20054;-92
2023/03/24 13:12:51;;;;;;;7.22;4.70;;;10.80;98.40;;;;;;4972934;28;20123;-94